sensor_id;sensor_type;location;lat;lon;timestamp;P1;durP1;ratioP1;P2;durP2;ratioP2
2944;SDS011;1482;51.398;7.128;2023-04-27T00:02:11;9.60;;;6.47;;
2944;SDS011;1482;51.398;7.128;2023-04-27T00:04:37;8.27;;;6.80;;
2944;SDS011;1482;51.398;7.128;2023-04-27T00:07:02;8.03;;;5.60;;
2944;SDS011;1482;51.398;7.128;2023-04-27T00:09:28;7.40;;;5.03;;
2944;SDS011;1482;51.398;7.128;2023-04-27T00:11:53;8.83;;;5.50;;
2944;SDS011;1482;51.398;7.128;2023-04-27T00:14:19;10.17;;;6.10;;
2944;SDS011;1482;51.398;7.128;2023-04-27T00:16:46;13.67;;;7.00;;
2944;SDS011;1482;51.398;7.128;2023-04-27T00:19:11;13.90;;;6.07;;
2944;SDS011;1482;51.398;7.128;2023-04-27T00:21:37;11.17;;;6.30;;
2944;SDS011;1482;51.398;7.128;2023-04-27T00:24:03;9.97;;;5.77;;
2944;SDS011;1482;51.398;7.128;2023-04-27T00:26:29;14.13;;;5.60;;
2944;SDS011;1482;51.398;7.128;2023-04-27T00:28:54;7.73;;;4.87;;
2944;SDS011;1482;51.398;7.128;2023-04-27T00:31:20;8.13;;;5.63;;
2944;SDS011;1482;51.398;7.128;2023-04-27T00:33:46;7.57;;;6.37;;
2944;SDS011;1482;51.398;7.128;2023-04-27T00:36:11;14.70;;;5.50;;
2944;SDS011;1482;51.398;7.128;2023-04-27T00:38:37;8.10;;;6.30;;
2944;SDS011;1482;51.398;7.128;2023-04-27T00:41:03;9.70;;;5.07;;
2944;SDS011;1482;51.398;7.128;2023-04-27T00:43:30;7.10;;;5.53;;
2944;SDS011;1482;51.398;7.128;2023-04-27T00:45:56;8.93;;;6.20;;
2944;SDS011;1482;51.398;7.128;2023-04-27T00:48:23;12.10;;;6.10;;
2944;SDS011;1482;51.398;7.128;2023-04-27T00:50:48;7.53;;;5.37;;
2944;SDS011;1482;51.398;7.128;2023-04-27T00:53:14;8.60;;;5.17;;
2944;SDS011;1482;51.398;7.128;2023-04-27T00:55:40;10.73;;;5.67;;
2944;SDS011;1482;51.398;7.128;2023-04-27T00:58:05;13.00;;;7.00;;
2944;SDS011;1482;51.398;7.128;2023-04-27T01:00:34;10.17;;;6.20;;
2944;SDS011;1482;51.398;7.128;2023-04-27T01:03:00;13.00;;;6.13;;
2944;SDS011;1482;51.398;7.128;2023-04-27T01:05:26;13.00;;;6.07;;
2944;SDS011;1482;51.398;7.128;2023-04-27T01:07:52;8.57;;;6.50;;
2944;SDS011;1482;51.398;7.128;2023-04-27T01:10:17;7.93;;;6.17;;
2944;SDS011;1482;51.398;7.128;2023-04-27T01:12:43;8.00;;;5.57;;
2944;SDS011;1482;51.398;7.128;2023-04-27T01:15:09;12.60;;;6.27;;
2944;SDS011;1482;51.398;7.128;2023-04-27T01:17:35;13.73;;;6.17;;
2944;SDS011;1482;51.398;7.128;2023-04-27T01:20:01;8.53;;;6.60;;
2944;SDS011;1482;51.398;7.128;2023-04-27T01:22:26;10.53;;;6.40;;
2944;SDS011;1482;51.398;7.128;2023-04-27T01:24:52;8.20;;;5.63;;
2944;SDS011;1482;51.398;7.128;2023-04-27T01:27:18;12.73;;;7.70;;
2944;SDS011;1482;51.398;7.128;2023-04-27T01:29:43;12.53;;;6.53;;
2944;SDS011;1482;51.398;7.128;2023-04-27T01:32:09;8.17;;;5.80;;
2944;SDS011;1482;51.398;7.128;2023-04-27T01:34:36;15.90;;;5.87;;
2944;SDS011;1482;51.398;7.128;2023-04-27T01:37:02;10.73;;;7.90;;
2944;SDS011;1482;51.398;7.128;2023-04-27T01:39:27;7.93;;;6.87;;
2944;SDS011;1482;51.398;7.128;2023-04-27T01:41:53;9.53;;;5.60;;
2944;SDS011;1482;51.398;7.128;2023-04-27T01:44:18;11.07;;;5.90;;
2944;SDS011;1482;51.398;7.128;2023-04-27T01:46:45;16.40;;;6.77;;
2944;SDS011;1482;51.398;7.128;2023-04-27T01:49:10;11.57;;;6.33;;
2944;SDS011;1482;51.398;7.128;2023-04-27T01:51:36;12.27;;;6.07;;
2944;SDS011;1482;51.398;7.128;2023-04-27T01:54:01;8.83;;;6.83;;
2944;SDS011;1482;51.398;7.128;2023-04-27T01:56:27;10.40;;;6.57;;
2944;SDS011;1482;51.398;7.128;2023-04-27T01:58:52;9.90;;;6.00;;
2944;SDS011;1482;51.398;7.128;2023-04-27T02:01:18;12.43;;;6.90;;
2944;SDS011;1482;51.398;7.128;2023-04-27T02:03:44;11.53;;;7.43;;
2944;SDS011;1482;51.398;7.128;2023-04-27T02:06:10;10.47;;;7.87;;
2944;SDS011;1482;51.398;7.128;2023-04-27T02:08:36;16.17;;;6.40;;
2944;SDS011;1482;51.398;7.128;2023-04-27T02:11:01;13.50;;;8.03;;
2944;SDS011;1482;51.398;7.128;2023-04-27T02:13:27;13.30;;;8.20;;
2944;SDS011;1482;51.398;7.128;2023-04-27T02:15:53;11.03;;;8.23;;
2944;SDS011;1482;51.398;7.128;2023-04-27T02:18:20;15.60;;;8.30;;
2944;SDS011;1482;51.398;7.128;2023-04-27T02:20:45;15.87;;;7.87;;
2944;SDS011;1482;51.398;7.128;2023-04-27T02:23:11;11.63;;;8.17;;
2944;SDS011;1482;51.398;7.128;2023-04-27T02:25:37;16.33;;;7.30;;
2944;SDS011;1482;51.398;7.128;2023-04-27T02:28:03;10.20;;;8.50;;
2944;SDS011;1482;51.398;7.128;2023-04-27T02:30:28;10.60;;;8.53;;
2944;SDS011;1482;51.398;7.128;2023-04-27T02:32:54;12.03;;;8.13;;
2944;SDS011;1482;51.398;7.128;2023-04-27T02:35:21;11.80;;;7.40;;
2944;SDS011;1482;51.398;7.128;2023-04-27T02:37:46;13.80;;;7.33;;
2944;SDS011;1482;51.398;7.128;2023-04-27T02:40:12;11.17;;;7.37;;
2944;SDS011;1482;51.398;7.128;2023-04-27T02:42:37;11.17;;;7.83;;
2944;SDS011;1482;51.398;7.128;2023-04-27T02:45:04;13.70;;;7.83;;
2944;SDS011;1482;51.398;7.128;2023-04-27T02:47:31;15.50;;;8.50;;
2944;SDS011;1482;51.398;7.128;2023-04-27T02:49:56;16.07;;;7.30;;
2944;SDS011;1482;51.398;7.128;2023-04-27T02:52:22;18.20;;;8.43;;
2944;SDS011;1482;51.398;7.128;2023-04-27T02:54:47;14.73;;;8.20;;
2944;SDS011;1482;51.398;7.128;2023-04-27T02:57:13;11.60;;;7.97;;
2944;SDS011;1482;51.398;7.128;2023-04-27T02:59:38;17.33;;;8.07;;
2944;SDS011;1482;51.398;7.128;2023-04-27T03:02:04;11.90;;;7.20;;
2944;SDS011;1482;51.398;7.128;2023-04-27T03:04:29;12.77;;;7.33;;
2944;SDS011;1482;51.398;7.128;2023-04-27T03:06:55;14.63;;;7.30;;
2944;SDS011;1482;51.398;7.128;2023-04-27T03:09:20;14.53;;;8.10;;
2944;SDS011;1482;51.398;7.128;2023-04-27T03:11:46;18.87;;;8.23;;
2944;SDS011;1482;51.398;7.128;2023-04-27T03:14:12;11.97;;;7.77;;
2944;SDS011;1482;51.398;7.128;2023-04-27T03:16:37;19.67;;;8.67;;
2944;SDS011;1482;51.398;7.128;2023-04-27T03:19:03;15.10;;;8.13;;
2944;SDS011;1482;51.398;7.128;2023-04-27T03:21:28;12.67;;;9.27;;
2944;SDS011;1482;51.398;7.128;2023-04-27T03:23:54;13.47;;;8.17;;
2944;SDS011;1482;51.398;7.128;2023-04-27T03:26:19;14.40;;;8.73;;
2944;SDS011;1482;51.398;7.128;2023-04-27T03:28:45;13.03;;;8.77;;
2944;SDS011;1482;51.398;7.128;2023-04-27T03:31:11;14.63;;;8.97;;
2944;SDS011;1482;51.398;7.128;2023-04-27T03:33:38;16.43;;;8.30;;
2944;SDS011;1482;51.398;7.128;2023-04-27T03:36:04;14.90;;;8.67;;
2944;SDS011;1482;51.398;7.128;2023-04-27T03:38:31;14.63;;;9.80;;
2944;SDS011;1482;51.398;7.128;2023-04-27T03:40:57;22.77;;;10.03;;
2944;SDS011;1482;51.398;7.128;2023-04-27T03:43:22;14.87;;;9.50;;
2944;SDS011;1482;51.398;7.128;2023-04-27T03:45:49;16.73;;;9.47;;
2944;SDS011;1482;51.398;7.128;2023-04-27T03:48:15;17.83;;;8.53;;
2944;SDS011;1482;51.398;7.128;2023-04-27T03:50:41;15.07;;;9.43;;
2944;SDS011;1482;51.398;7.128;2023-04-27T03:53:07;19.47;;;9.37;;
2944;SDS011;1482;51.398;7.128;2023-04-27T03:55:36;17.83;;;10.33;;
2944;SDS011;1482;51.398;7.128;2023-04-27T03:58:06;17.60;;;10.10;;
2944;SDS011;1482;51.398;7.128;2023-04-27T04:00:32;21.50;;;11.27;;
2944;SDS011;1482;51.398;7.128;2023-04-27T04:02:59;23.23;;;12.00;;
2944;SDS011;1482;51.398;7.128;2023-04-27T04:05:25;19.10;;;10.73;;
2944;SDS011;1482;51.398;7.128;2023-04-27T04:07:50;13.97;;;10.17;;
2944;SDS011;1482;51.398;7.128;2023-04-27T04:10:16;16.07;;;10.43;;
2944;SDS011;1482;51.398;7.128;2023-04-27T04:12:42;19.97;;;9.97;;
2944;SDS011;1482;51.398;7.128;2023-04-27T04:15:07;22.47;;;11.00;;
2944;SDS011;1482;51.398;7.128;2023-04-27T04:17:33;18.07;;;12.27;;
2944;SDS011;1482;51.398;7.128;2023-04-27T04:19:59;16.50;;;10.70;;
2944;SDS011;1482;51.398;7.128;2023-04-27T04:22:25;16.50;;;10.27;;
2944;SDS011;1482;51.398;7.128;2023-04-27T04:24:51;19.80;;;10.67;;
2944;SDS011;1482;51.398;7.128;2023-04-27T04:27:16;13.93;;;9.43;;
2944;SDS011;1482;51.398;7.128;2023-04-27T04:29:42;21.30;;;10.40;;
2944;SDS011;1482;51.398;7.128;2023-04-27T04:32:08;17.87;;;11.43;;
2944;SDS011;1482;51.398;7.128;2023-04-27T04:34:33;25.97;;;10.30;;
2944;SDS011;1482;51.398;7.128;2023-04-27T04:37:00;14.73;;;10.50;;
2944;SDS011;1482;51.398;7.128;2023-04-27T04:39:29;14.30;;;9.60;;
2944;SDS011;1482;51.398;7.128;2023-04-27T04:41:55;13.60;;;8.87;;
2944;SDS011;1482;51.398;7.128;2023-04-27T04:44:21;16.73;;;9.20;;
2944;SDS011;1482;51.398;7.128;2023-04-27T04:46:47;12.80;;;9.50;;
2944;SDS011;1482;51.398;7.128;2023-04-27T04:49:12;15.50;;;8.03;;
2944;SDS011;1482;51.398;7.128;2023-04-27T04:51:41;10.23;;;7.60;;
2944;SDS011;1482;51.398;7.128;2023-04-27T04:54:07;17.53;;;8.40;;
2944;SDS011;1482;51.398;7.128;2023-04-27T04:56:33;20.80;;;11.03;;
2944;SDS011;1482;51.398;7.128;2023-04-27T04:58:59;10.40;;;7.97;;
2944;SDS011;1482;51.398;7.128;2023-04-27T05:01:25;13.73;;;8.33;;
2944;SDS011;1482;51.398;7.128;2023-04-27T05:03:51;12.60;;;8.23;;
2944;SDS011;1482;51.398;7.128;2023-04-27T05:06:16;10.93;;;8.13;;
2944;SDS011;1482;51.398;7.128;2023-04-27T05:08:42;14.00;;;8.27;;
2944;SDS011;1482;51.398;7.128;2023-04-27T05:11:08;12.40;;;8.23;;
2944;SDS011;1482;51.398;7.128;2023-04-27T05:13:35;10.43;;;8.67;;
2944;SDS011;1482;51.398;7.128;2023-04-27T05:16:02;8.00;;;6.23;;
2944;SDS011;1482;51.398;7.128;2023-04-27T05:18:31;10.33;;;7.83;;
2944;SDS011;1482;51.398;7.128;2023-04-27T05:20:57;8.33;;;7.40;;
2944;SDS011;1482;51.398;7.128;2023-04-27T05:23:23;11.07;;;7.23;;
2944;SDS011;1482;51.398;7.128;2023-04-27T05:25:49;8.67;;;7.20;;
2944;SDS011;1482;51.398;7.128;2023-04-27T05:28:14;9.67;;;7.13;;
2944;SDS011;1482;51.398;7.128;2023-04-27T05:30:40;9.83;;;7.07;;
2944;SDS011;1482;51.398;7.128;2023-04-27T05:33:06;12.37;;;8.10;;
2944;SDS011;1482;51.398;7.128;2023-04-27T05:35:32;8.03;;;7.17;;
2944;SDS011;1482;51.398;7.128;2023-04-27T05:37:57;9.00;;;8.10;;
2944;SDS011;1482;51.398;7.128;2023-04-27T05:40:23;13.27;;;7.73;;
2944;SDS011;1482;51.398;7.128;2023-04-27T05:42:49;10.73;;;7.73;;
2944;SDS011;1482;51.398;7.128;2023-04-27T05:45:15;9.70;;;8.07;;
2944;SDS011;1482;51.398;7.128;2023-04-27T05:47:40;11.47;;;8.00;;
2944;SDS011;1482;51.398;7.128;2023-04-27T05:50:06;10.73;;;8.80;;
2944;SDS011;1482;51.398;7.128;2023-04-27T05:52:32;8.33;;;7.50;;
2944;SDS011;1482;51.398;7.128;2023-04-27T05:54:58;12.70;;;7.27;;
2944;SDS011;1482;51.398;7.128;2023-04-27T05:57:24;13.93;;;8.87;;
2944;SDS011;1482;51.398;7.128;2023-04-27T05:59:50;10.00;;;8.63;;
2944;SDS011;1482;51.398;7.128;2023-04-27T06:02:16;8.90;;;7.97;;
2944;SDS011;1482;51.398;7.128;2023-04-27T06:04:42;11.27;;;9.27;;
2944;SDS011;1482;51.398;7.128;2023-04-27T06:07:08;16.60;;;9.87;;
2944;SDS011;1482;51.398;7.128;2023-04-27T06:09:35;11.97;;;8.73;;
2944;SDS011;1482;51.398;7.128;2023-04-27T06:12:01;8.67;;;7.87;;
2944;SDS011;1482;51.398;7.128;2023-04-27T06:14:28;8.50;;;7.70;;
2944;SDS011;1482;51.398;7.128;2023-04-27T06:16:54;9.03;;;8.13;;
2944;SDS011;1482;51.398;7.128;2023-04-27T06:19:20;8.50;;;7.70;;
2944;SDS011;1482;51.398;7.128;2023-04-27T06:21:46;10.00;;;7.57;;
2944;SDS011;1482;51.398;7.128;2023-04-27T06:24:11;8.70;;;7.90;;
2944;SDS011;1482;51.398;7.128;2023-04-27T06:26:37;9.90;;;8.90;;
2944;SDS011;1482;51.398;7.128;2023-04-27T06:29:02;10.60;;;7.63;;
2944;SDS011;1482;51.398;7.128;2023-04-27T06:31:28;12.07;;;8.93;;
2944;SDS011;1482;51.398;7.128;2023-04-27T06:33:54;9.70;;;8.00;;
2944;SDS011;1482;51.398;7.128;2023-04-27T06:36:20;8.43;;;7.53;;
2944;SDS011;1482;51.398;7.128;2023-04-27T06:38:46;10.80;;;7.83;;
2944;SDS011;1482;51.398;7.128;2023-04-27T06:41:11;8.33;;;7.50;;
2944;SDS011;1482;51.398;7.128;2023-04-27T06:43:37;10.00;;;7.30;;
2944;SDS011;1482;51.398;7.128;2023-04-27T06:46:03;7.97;;;7.23;;
2944;SDS011;1482;51.398;7.128;2023-04-27T06:48:29;10.87;;;7.03;;
2944;SDS011;1482;51.398;7.128;2023-04-27T06:50:54;9.93;;;6.77;;
2944;SDS011;1482;51.398;7.128;2023-04-27T06:53:20;10.60;;;6.70;;
2944;SDS011;1482;51.398;7.128;2023-04-27T06:55:46;5.77;;;5.17;;
2944;SDS011;1482;51.398;7.128;2023-04-27T06:58:11;9.23;;;5.77;;
2944;SDS011;1482;51.398;7.128;2023-04-27T07:00:37;9.00;;;6.00;;
2944;SDS011;1482;51.398;7.128;2023-04-27T07:03:02;8.70;;;5.30;;
2944;SDS011;1482;51.398;7.128;2023-04-27T07:05:28;8.83;;;6.30;;
2944;SDS011;1482;51.398;7.128;2023-04-27T07:07:53;9.70;;;5.37;;
2944;SDS011;1482;51.398;7.128;2023-04-27T07:10:19;7.30;;;5.50;;
2944;SDS011;1482;51.398;7.128;2023-04-27T07:12:45;7.10;;;5.83;;
2944;SDS011;1482;51.398;7.128;2023-04-27T07:15:10;9.17;;;6.20;;
2944;SDS011;1482;51.398;7.128;2023-04-27T07:17:36;7.30;;;6.00;;
2944;SDS011;1482;51.398;7.128;2023-04-27T07:20:02;6.73;;;6.00;;
2944;SDS011;1482;51.398;7.128;2023-04-27T07:22:29;5.67;;;5.07;;
2944;SDS011;1482;51.398;7.128;2023-04-27T07:24:54;8.20;;;7.03;;
2944;SDS011;1482;51.398;7.128;2023-04-27T07:27:20;7.60;;;5.70;;
2944;SDS011;1482;51.398;7.128;2023-04-27T07:29:46;7.90;;;5.67;;
2944;SDS011;1482;51.398;7.128;2023-04-27T07:32:12;7.40;;;6.03;;
2944;SDS011;1482;51.398;7.128;2023-04-27T07:34:37;6.80;;;6.10;;
2944;SDS011;1482;51.398;7.128;2023-04-27T07:37:03;6.20;;;5.63;;
2944;SDS011;1482;51.398;7.128;2023-04-27T07:39:29;8.70;;;5.30;;
2944;SDS011;1482;51.398;7.128;2023-04-27T07:41:55;6.20;;;4.47;;
2944;SDS011;1482;51.398;7.128;2023-04-27T07:44:22;5.13;;;4.10;;
2944;SDS011;1482;51.398;7.128;2023-04-27T07:46:47;6.67;;;4.47;;
2944;SDS011;1482;51.398;7.128;2023-04-27T07:49:13;6.53;;;4.90;;
2944;SDS011;1482;51.398;7.128;2023-04-27T07:51:39;5.93;;;4.70;;
2944;SDS011;1482;51.398;7.128;2023-04-27T07:54:05;9.60;;;5.37;;
2944;SDS011;1482;51.398;7.128;2023-04-27T07:56:31;9.73;;;5.30;;
2944;SDS011;1482;51.398;7.128;2023-04-27T07:58:57;4.97;;;4.50;;
2944;SDS011;1482;51.398;7.128;2023-04-27T08:01:23;7.50;;;5.17;;
2944;SDS011;1482;51.398;7.128;2023-04-27T08:03:49;6.80;;;4.57;;
2944;SDS011;1482;51.398;7.128;2023-04-27T08:06:14;7.17;;;4.77;;
2944;SDS011;1482;51.398;7.128;2023-04-27T08:08:40;4.93;;;3.97;;
2944;SDS011;1482;51.398;7.128;2023-04-27T08:11:12;5.17;;;4.57;;
2944;SDS011;1482;51.398;7.128;2023-04-27T08:13:37;5.37;;;4.50;;
2944;SDS011;1482;51.398;7.128;2023-04-27T08:16:03;6.03;;;4.60;;
2944;SDS011;1482;51.398;7.128;2023-04-27T08:18:29;9.77;;;4.90;;
2944;SDS011;1482;51.398;7.128;2023-04-27T08:20:54;5.63;;;3.97;;
2944;SDS011;1482;51.398;7.128;2023-04-27T08:23:20;7.70;;;4.40;;
2944;SDS011;1482;51.398;7.128;2023-04-27T08:25:46;4.47;;;3.90;;
2944;SDS011;1482;51.398;7.128;2023-04-27T08:28:13;4.70;;;3.77;;
2944;SDS011;1482;51.398;7.128;2023-04-27T08:30:40;4.87;;;3.73;;
2944;SDS011;1482;51.398;7.128;2023-04-27T08:33:06;4.40;;;4.00;;
2944;SDS011;1482;51.398;7.128;2023-04-27T08:35:32;7.13;;;4.07;;
2944;SDS011;1482;51.398;7.128;2023-04-27T08:37:58;6.10;;;4.10;;
2944;SDS011;1482;51.398;7.128;2023-04-27T08:40:23;6.47;;;4.17;;
2944;SDS011;1482;51.398;7.128;2023-04-27T08:42:56;5.60;;;4.50;;
2944;SDS011;1482;51.398;7.128;2023-04-27T08:45:24;7.90;;;4.07;;
2944;SDS011;1482;51.398;7.128;2023-04-27T08:47:50;6.37;;;5.30;;
2944;SDS011;1482;51.398;7.128;2023-04-27T08:50:16;7.57;;;5.37;;
2944;SDS011;1482;51.398;7.128;2023-04-27T08:52:43;5.30;;;4.80;;
2944;SDS011;1482;51.398;7.128;2023-04-27T08:55:09;5.30;;;4.80;;
2944;SDS011;1482;51.398;7.128;2023-04-27T08:57:35;6.07;;;4.90;;
2944;SDS011;1482;51.398;7.128;2023-04-27T09:00:00;5.93;;;5.03;;
2944;SDS011;1482;51.398;7.128;2023-04-27T09:02:36;6.37;;;5.00;;
2944;SDS011;1482;51.398;7.128;2023-04-27T09:05:02;8.90;;;3.80;;
2944;SDS011;1482;51.398;7.128;2023-04-27T09:07:28;7.33;;;4.67;;
2944;SDS011;1482;51.398;7.128;2023-04-27T09:10:03;5.60;;;4.40;;
2944;SDS011;1482;51.398;7.128;2023-04-27T09:12:29;9.87;;;5.10;;
2944;SDS011;1482;51.398;7.128;2023-04-27T09:14:57;8.60;;;5.03;;
2944;SDS011;1482;51.398;7.128;2023-04-27T09:17:25;8.27;;;4.93;;
2944;SDS011;1482;51.398;7.128;2023-04-27T09:19:51;6.50;;;5.30;;
2944;SDS011;1482;51.398;7.128;2023-04-27T09:22:29;9.10;;;4.87;;
2944;SDS011;1482;51.398;7.128;2023-04-27T09:24:55;7.10;;;4.57;;
2944;SDS011;1482;51.398;7.128;2023-04-27T09:27:21;12.50;;;4.83;;
2944;SDS011;1482;51.398;7.128;2023-04-27T09:29:47;7.57;;;4.57;;
2944;SDS011;1482;51.398;7.128;2023-04-27T09:32:13;6.80;;;4.67;;
2944;SDS011;1482;51.398;7.128;2023-04-27T09:34:43;7.07;;;4.10;;
2944;SDS011;1482;51.398;7.128;2023-04-27T09:37:09;7.03;;;4.10;;
2944;SDS011;1482;51.398;7.128;2023-04-27T09:39:35;7.10;;;4.03;;
2944;SDS011;1482;51.398;7.128;2023-04-27T09:42:01;4.33;;;3.83;;
2944;SDS011;1482;51.398;7.128;2023-04-27T09:44:28;7.30;;;4.37;;
2944;SDS011;1482;51.398;7.128;2023-04-27T09:46:54;9.93;;;4.83;;
2944;SDS011;1482;51.398;7.128;2023-04-27T09:49:23;8.53;;;4.73;;
2944;SDS011;1482;51.398;7.128;2023-04-27T09:51:50;7.27;;;5.70;;
2944;SDS011;1482;51.398;7.128;2023-04-27T09:54:18;5.90;;;4.97;;
2944;SDS011;1482;51.398;7.128;2023-04-27T09:59:43;5.83;;;5.23;;
2944;SDS011;1482;51.398;7.128;2023-04-27T10:02:15;5.93;;;4.47;;
2944;SDS011;1482;51.398;7.128;2023-04-27T10:07:48;13.63;;;6.90;;
2944;SDS011;1482;51.398;7.128;2023-04-27T10:10:16;9.70;;;5.07;;
2944;SDS011;1482;51.398;7.128;2023-04-27T10:12:42;7.70;;;5.20;;
2944;SDS011;1482;51.398;7.128;2023-04-27T10:15:15;6.40;;;4.37;;
2944;SDS011;1482;51.398;7.128;2023-04-27T10:17:48;7.07;;;4.90;;
2944;SDS011;1482;51.398;7.128;2023-04-27T10:20:14;9.07;;;4.47;;
2944;SDS011;1482;51.398;7.128;2023-04-27T10:22:45;9.17;;;4.90;;
2944;SDS011;1482;51.398;7.128;2023-04-27T10:25:21;11.30;;;5.30;;
2944;SDS011;1482;51.398;7.128;2023-04-27T10:27:57;6.77;;;5.13;;
2944;SDS011;1482;51.398;7.128;2023-04-27T10:30:25;6.37;;;4.90;;
2944;SDS011;1482;51.398;7.128;2023-04-27T10:32:56;8.77;;;4.60;;
2944;SDS011;1482;51.398;7.128;2023-04-27T10:35:32;7.00;;;3.73;;
2944;SDS011;1482;51.398;7.128;2023-04-27T10:38:05;6.83;;;4.63;;
2944;SDS011;1482;51.398;7.128;2023-04-27T10:40:32;5.60;;;4.90;;
2944;SDS011;1482;51.398;7.128;2023-04-27T10:45:35;8.47;;;5.27;;
2944;SDS011;1482;51.398;7.128;2023-04-27T10:48:00;5.83;;;4.70;;
2944;SDS011;1482;51.398;7.128;2023-04-27T10:50:26;7.13;;;4.10;;
2944;SDS011;1482;51.398;7.128;2023-04-27T10:52:52;7.90;;;4.10;;
2944;SDS011;1482;51.398;7.128;2023-04-27T10:55:18;5.17;;;4.67;;
2944;SDS011;1482;51.398;7.128;2023-04-27T10:57:49;4.30;;;4.00;;
2944;SDS011;1482;51.398;7.128;2023-04-27T11:00:25;7.20;;;4.07;;
2944;SDS011;1482;51.398;7.128;2023-04-27T11:02:56;9.23;;;4.97;;
2944;SDS011;1482;51.398;7.128;2023-04-27T11:05:35;7.50;;;4.40;;
2944;SDS011;1482;51.398;7.128;2023-04-27T11:08:07;7.23;;;4.77;;
2944;SDS011;1482;51.398;7.128;2023-04-27T11:10:37;6.90;;;4.80;;
2944;SDS011;1482;51.398;7.128;2023-04-27T11:13:14;8.67;;;5.40;;
2944;SDS011;1482;51.398;7.128;2023-04-27T11:18:16;6.27;;;4.67;;
2944;SDS011;1482;51.398;7.128;2023-04-27T11:20:46;7.90;;;4.50;;
2944;SDS011;1482;51.398;7.128;2023-04-27T11:23:23;5.10;;;4.00;;
2944;SDS011;1482;51.398;7.128;2023-04-27T11:25:50;8.90;;;4.70;;
2944;SDS011;1482;51.398;7.128;2023-04-27T11:28:16;5.23;;;4.27;;
2944;SDS011;1482;51.398;7.128;2023-04-27T11:30:43;6.20;;;4.70;;
2944;SDS011;1482;51.398;7.128;2023-04-27T11:33:08;5.50;;;4.00;;
2944;SDS011;1482;51.398;7.128;2023-04-27T11:35:34;6.83;;;5.27;;
2944;SDS011;1482;51.398;7.128;2023-04-27T11:38:00;10.87;;;5.70;;
2944;SDS011;1482;51.398;7.128;2023-04-27T11:40:25;7.80;;;5.77;;
2944;SDS011;1482;51.398;7.128;2023-04-27T11:42:59;5.70;;;5.03;;
2944;SDS011;1482;51.398;7.128;2023-04-27T11:45:27;6.63;;;5.07;;
2944;SDS011;1482;51.398;7.128;2023-04-27T11:47:54;5.13;;;4.63;;
2944;SDS011;1482;51.398;7.128;2023-04-27T11:50:24;7.00;;;4.70;;
2944;SDS011;1482;51.398;7.128;2023-04-27T11:52:51;5.90;;;5.03;;
2944;SDS011;1482;51.398;7.128;2023-04-27T11:55:19;5.00;;;4.50;;
2944;SDS011;1482;51.398;7.128;2023-04-27T11:57:45;6.67;;;4.70;;
2944;SDS011;1482;51.398;7.128;2023-04-27T12:00:11;4.83;;;4.43;;
2944;SDS011;1482;51.398;7.128;2023-04-27T12:02:38;8.20;;;4.63;;
2944;SDS011;1482;51.398;7.128;2023-04-27T12:05:04;7.37;;;5.20;;
2944;SDS011;1482;51.398;7.128;2023-04-27T12:07:31;5.83;;;4.40;;
2944;SDS011;1482;51.398;7.128;2023-04-27T12:09:57;9.40;;;4.67;;
2944;SDS011;1482;51.398;7.128;2023-04-27T12:12:22;5.37;;;4.87;;
2944;SDS011;1482;51.398;7.128;2023-04-27T12:14:48;6.67;;;5.07;;
2944;SDS011;1482;51.398;7.128;2023-04-27T12:17:14;5.93;;;4.83;;
2944;SDS011;1482;51.398;7.128;2023-04-27T12:19:40;8.73;;;5.07;;
2944;SDS011;1482;51.398;7.128;2023-04-27T12:22:06;17.93;;;5.63;;
2944;SDS011;1482;51.398;7.128;2023-04-27T12:24:32;8.53;;;5.03;;
2944;SDS011;1482;51.398;7.128;2023-04-27T12:26:58;8.30;;;5.70;;
2944;SDS011;1482;51.398;7.128;2023-04-27T12:29:23;7.30;;;5.40;;
2944;SDS011;1482;51.398;7.128;2023-04-27T12:31:49;6.47;;;4.90;;
2944;SDS011;1482;51.398;7.128;2023-04-27T12:34:15;8.37;;;5.27;;
2944;SDS011;1482;51.398;7.128;2023-04-27T12:36:41;11.13;;;5.50;;
2944;SDS011;1482;51.398;7.128;2023-04-27T12:41:41;6.77;;;5.97;;
2944;SDS011;1482;51.398;7.128;2023-04-27T12:44:07;7.37;;;5.73;;
2944;SDS011;1482;51.398;7.128;2023-04-27T12:46:33;8.97;;;5.70;;
2944;SDS011;1482;51.398;7.128;2023-04-27T12:48:58;9.97;;;5.63;;
2944;SDS011;1482;51.398;7.128;2023-04-27T12:51:26;7.37;;;5.20;;
2944;SDS011;1482;51.398;7.128;2023-04-27T12:53:52;12.80;;;7.00;;
2944;SDS011;1482;51.398;7.128;2023-04-27T12:56:18;7.80;;;5.80;;
2944;SDS011;1482;51.398;7.128;2023-04-27T12:58:43;8.90;;;5.40;;
2944;SDS011;1482;51.398;7.128;2023-04-27T13:01:10;6.00;;;5.07;;
2944;SDS011;1482;51.398;7.128;2023-04-27T13:03:47;9.70;;;5.90;;
2944;SDS011;1482;51.398;7.128;2023-04-27T13:06:13;7.30;;;5.90;;
2944;SDS011;1482;51.398;7.128;2023-04-27T13:08:38;8.03;;;5.80;;
2944;SDS011;1482;51.398;7.128;2023-04-27T13:11:05;7.70;;;5.87;;
2944;SDS011;1482;51.398;7.128;2023-04-27T13:13:30;8.93;;;5.13;;
2944;SDS011;1482;51.398;7.128;2023-04-27T13:15:56;6.70;;;6.00;;
2944;SDS011;1482;51.398;7.128;2023-04-27T13:18:22;10.93;;;5.70;;
2944;SDS011;1482;51.398;7.128;2023-04-27T13:20:48;8.20;;;6.10;;
2944;SDS011;1482;51.398;7.128;2023-04-27T13:23:13;10.00;;;5.77;;
2944;SDS011;1482;51.398;7.128;2023-04-27T13:25:39;7.53;;;5.93;;
2944;SDS011;1482;51.398;7.128;2023-04-27T13:28:05;9.77;;;6.03;;
2944;SDS011;1482;51.398;7.128;2023-04-27T13:30:31;9.43;;;7.00;;
2944;SDS011;1482;51.398;7.128;2023-04-27T13:32:57;8.57;;;7.47;;
2944;SDS011;1482;51.398;7.128;2023-04-27T13:35:22;6.03;;;5.40;;
2944;SDS011;1482;51.398;7.128;2023-04-27T13:37:49;8.63;;;5.87;;
2944;SDS011;1482;51.398;7.128;2023-04-27T13:40:17;8.53;;;5.67;;
2944;SDS011;1482;51.398;7.128;2023-04-27T13:42:43;7.50;;;5.90;;
2944;SDS011;1482;51.398;7.128;2023-04-27T13:45:08;6.20;;;5.60;;
2944;SDS011;1482;51.398;7.128;2023-04-27T13:47:34;8.57;;;6.00;;
2944;SDS011;1482;51.398;7.128;2023-04-27T13:50:06;9.57;;;7.83;;
2944;SDS011;1482;51.398;7.128;2023-04-27T13:52:33;9.30;;;6.77;;
2944;SDS011;1482;51.398;7.128;2023-04-27T13:55:00;9.33;;;7.07;;
2944;SDS011;1482;51.398;7.128;2023-04-27T13:57:27;6.80;;;6.10;;
2944;SDS011;1482;51.398;7.128;2023-04-27T13:59:52;7.00;;;5.77;;
2944;SDS011;1482;51.398;7.128;2023-04-27T14:02:18;12.70;;;7.37;;
2944;SDS011;1482;51.398;7.128;2023-04-27T14:04:43;7.57;;;6.33;;
2944;SDS011;1482;51.398;7.128;2023-04-27T14:07:09;9.47;;;5.50;;
2944;SDS011;1482;51.398;7.128;2023-04-27T14:09:35;7.70;;;6.13;;
2944;SDS011;1482;51.398;7.128;2023-04-27T14:12:00;11.77;;;7.03;;
2944;SDS011;1482;51.398;7.128;2023-04-27T14:14:26;8.20;;;6.20;;
2944;SDS011;1482;51.398;7.128;2023-04-27T14:16:53;9.57;;;6.57;;
2944;SDS011;1482;51.398;7.128;2023-04-27T14:19:18;8.23;;;6.33;;
2944;SDS011;1482;51.398;7.128;2023-04-27T14:21:45;7.30;;;5.23;;
2944;SDS011;1482;51.398;7.128;2023-04-27T14:24:11;8.97;;;6.97;;
2944;SDS011;1482;51.398;7.128;2023-04-27T14:26:37;8.40;;;5.77;;
2944;SDS011;1482;51.398;7.128;2023-04-27T14:29:03;8.73;;;6.53;;
2944;SDS011;1482;51.398;7.128;2023-04-27T14:31:28;10.80;;;6.60;;
2944;SDS011;1482;51.398;7.128;2023-04-27T14:33:54;9.20;;;6.13;;
2944;SDS011;1482;51.398;7.128;2023-04-27T14:36:22;10.50;;;7.63;;
2944;SDS011;1482;51.398;7.128;2023-04-27T14:38:48;10.80;;;6.77;;
2944;SDS011;1482;51.398;7.128;2023-04-27T14:41:13;12.43;;;7.23;;
2944;SDS011;1482;51.398;7.128;2023-04-27T14:43:39;10.93;;;6.43;;
2944;SDS011;1482;51.398;7.128;2023-04-27T14:46:05;7.70;;;6.90;;
2944;SDS011;1482;51.398;7.128;2023-04-27T14:48:31;7.53;;;6.73;;
2944;SDS011;1482;51.398;7.128;2023-04-27T14:50:56;13.43;;;6.70;;
2944;SDS011;1482;51.398;7.128;2023-04-27T14:53:22;8.23;;;6.33;;
2944;SDS011;1482;51.398;7.128;2023-04-27T14:55:49;10.43;;;6.10;;
2944;SDS011;1482;51.398;7.128;2023-04-27T14:58:15;8.90;;;6.40;;
2944;SDS011;1482;51.398;7.128;2023-04-27T15:00:40;8.40;;;6.70;;
2944;SDS011;1482;51.398;7.128;2023-04-27T15:03:06;8.07;;;6.53;;
2944;SDS011;1482;51.398;7.128;2023-04-27T15:05:31;8.17;;;6.77;;
2944;SDS011;1482;51.398;7.128;2023-04-27T15:07:57;8.27;;;6.87;;
2944;SDS011;1482;51.398;7.128;2023-04-27T15:10:22;13.63;;;7.07;;
2944;SDS011;1482;51.398;7.128;2023-04-27T15:12:48;6.97;;;6.27;;
2944;SDS011;1482;51.398;7.128;2023-04-27T15:15:13;10.10;;;7.30;;
2944;SDS011;1482;51.398;7.128;2023-04-27T15:17:39;7.83;;;6.87;;
2944;SDS011;1482;51.398;7.128;2023-04-27T15:20:05;11.33;;;8.13;;